createdAt,value
2018-08-03T00:01:38.956Z,27.17
2018-08-03T00:04:06.678Z,26.47
2018-08-03T00:06:34.409Z,30.27
2018-08-03T00:09:02.264Z,24.77
2018-08-03T00:11:29.948Z,31.53
2018-08-03T00:13:57.669Z,26.47
2018-08-03T00:16:25.329Z,32.57
2018-08-03T00:18:53.277Z,27.70
2018-08-03T00:21:21.013Z,29.00
2018-08-03T00:23:48.819Z,33.20
2018-08-03T00:26:16.667Z,30.20
2018-08-03T00:28:44.383Z,34.73
2018-08-03T00:31:12.050Z,32.67
2018-08-03T00:33:39.802Z,37.43
2018-08-03T00:36:07.571Z,34.53
2018-08-03T00:38:35.321Z,35.50
2018-08-03T00:41:03.058Z,32.53
2018-08-03T00:43:30.757Z,34.67
2018-08-03T00:45:58.468Z,35.50
2018-08-03T00:48:26.166Z,37.90
2018-08-03T00:50:54.206Z,32.67
2018-08-03T00:53:21.945Z,34.27
2018-08-03T00:55:49.620Z,32.33
2018-08-03T00:58:17.310Z,32.80
2018-08-03T01:00:45.006Z,42.97
2018-08-03T01:03:12.702Z,44.90
2018-08-03T01:05:40.361Z,45.67
2018-08-03T01:08:08.028Z,37.60
2018-08-03T01:10:35.756Z,47.50
2018-08-03T01:13:03.509Z,44.67
2018-08-03T01:15:31.220Z,47.80
2018-08-03T01:17:58.881Z,36.83
2018-08-03T01:20:26.673Z,43.57
2018-08-03T01:22:54.387Z,43.10
2018-08-03T01:25:22.113Z,40.60
2018-08-03T01:27:49.860Z,38.20
2018-08-03T01:30:17.585Z,31.03
2018-08-03T01:32:45.381Z,40.97
2018-08-03T01:35:13.097Z,36.97
2018-08-03T01:37:41.171Z,34.00
2018-08-03T01:40:08.922Z,31.73
2018-08-03T01:42:36.672Z,40.63
2018-08-03T01:45:04.504Z,32.77
2018-08-03T01:47:32.204Z,26.87
2018-08-03T01:49:59.924Z,29.03
2018-08-03T01:52:27.680Z,27.40
2018-08-03T01:54:55.352Z,26.87
2018-08-03T01:57:23.036Z,28.90
2018-08-03T01:59:50.723Z,25.87
2018-08-03T02:02:18.435Z,26.00
2018-08-03T02:04:46.061Z,28.73
2018-08-03T02:07:13.728Z,36.60
2018-08-03T02:09:41.431Z,23.33
2018-08-03T02:12:09.219Z,25.33
2018-08-03T02:14:36.891Z,29.30
2018-08-03T02:17:04.625Z,26.57
2018-08-03T02:19:32.342Z,29.23
2018-08-03T02:22:00.092Z,27.13
2018-08-03T02:24:27.848Z,27.30
2018-08-03T02:26:55.515Z,26.00
2018-08-03T02:29:23.233Z,28.43
2018-08-03T02:31:50.968Z,31.03
2018-08-03T02:34:18.657Z,26.87
2018-08-03T02:36:46.344Z,26.43
2018-08-03T02:39:14.110Z,27.00
2018-08-03T02:41:41.919Z,26.03
2018-08-03T02:44:09.896Z,27.70
2018-08-03T02:46:37.844Z,31.87
2018-08-03T02:49:05.697Z,26.63
2018-08-03T02:51:33.513Z,28.17
2018-08-03T02:54:01.199Z,31.03
2018-08-03T02:56:28.818Z,27.47
2018-08-03T02:58:56.416Z,27.13
2018-08-03T03:01:24.129Z,28.37
2018-08-03T03:03:51.883Z,27.47
2018-08-03T03:06:19.524Z,28.27
2018-08-03T03:08:47.223Z,27.70
2018-08-03T03:11:14.923Z,30.07
2018-08-03T03:13:42.601Z,29.80
2018-08-03T03:16:10.373Z,33.80
2018-08-03T03:18:38.107Z,33.43
2018-08-03T03:21:06.026Z,33.60
2018-08-03T03:23:33.776Z,30.03
2018-08-03T03:26:01.511Z,35.53
2018-08-03T03:28:29.279Z,31.77
2018-08-03T03:30:57.022Z,30.07
2018-08-03T03:33:24.691Z,33.43
2018-08-03T03:35:52.864Z,34.80
2018-08-03T03:38:20.498Z,32.57
2018-08-03T03:40:48.208Z,32.43
2018-08-03T03:43:15.898Z,31.50
2018-08-03T03:45:43.532Z,30.10
2018-08-03T03:48:15.785Z,33.63
2018-08-03T03:50:43.479Z,36.73
2018-08-03T03:53:11.188Z,37.43
2018-08-03T03:55:38.897Z,36.50
2018-08-03T03:58:06.652Z,33.30
2018-08-03T04:00:34.378Z,33.30
2018-08-03T04:03:02.092Z,33.80
2018-08-03T04:05:29.811Z,33.17
2018-08-03T04:07:57.588Z,32.37
2018-08-03T04:10:25.271Z,33.43
2018-08-03T04:12:53.022Z,30.57
2018-08-03T04:15:20.744Z,28.93
2018-08-03T04:17:48.534Z,26.57
2018-08-03T04:20:16.452Z,27.63
2018-08-03T04:22:44.214Z,25.80
2018-08-03T04:25:12.020Z,37.33
2018-08-03T04:27:39.732Z,29.37
2018-08-03T04:30:08.627Z,31.60
2018-08-03T04:32:36.336Z,24.50
2018-08-03T04:35:04.111Z,29.90
2018-08-03T04:37:31.792Z,26.40
2018-08-03T04:39:59.498Z,24.60
2018-08-03T04:42:27.163Z,25.00
2018-08-03T04:44:54.839Z,24.47
2018-08-03T04:47:22.560Z,25.30
2018-08-03T04:49:50.229Z,26.00
2018-08-03T04:52:17.905Z,23.30
2018-08-03T04:54:45.703Z,26.33
2018-08-03T04:57:13.424Z,23.90
2018-08-03T04:59:41.103Z,32.43
2018-08-03T05:02:09.542Z,24.10
2018-08-03T05:04:37.214Z,27.10
2018-08-03T05:07:04.881Z,26.43
2018-08-03T05:09:32.646Z,25.93
2018-08-03T05:12:00.566Z,24.70
2018-08-03T05:14:28.398Z,26.43
2018-08-03T05:16:56.124Z,24.33
2018-08-03T05:19:24.000Z,24.30
2018-08-03T05:21:51.658Z,24.00
2018-08-03T05:24:19.755Z,26.00
2018-08-03T05:26:47.423Z,26.93
2018-08-03T05:29:15.155Z,26.67
2018-08-03T05:31:42.837Z,27.93
2018-08-03T05:34:10.572Z,27.40
2018-08-03T05:36:38.307Z,25.10
2018-08-03T05:39:09.180Z,22.67
2018-08-03T05:41:37.250Z,23.13
2018-08-03T05:44:05.333Z,22.67
2018-08-03T05:46:33.000Z,24.10
2018-08-03T05:49:00.610Z,23.70
2018-08-03T05:51:28.255Z,20.97
2018-08-03T05:53:56.006Z,24.60
2018-08-03T05:56:23.648Z,22.50
2018-08-03T05:58:51.190Z,22.40
2018-08-03T06:01:18.778Z,26.13
2018-08-03T06:03:46.402Z,25.70
2018-08-03T06:06:14.009Z,24.13
2018-08-03T06:08:41.598Z,24.23
2018-08-03T06:11:09.193Z,21.00
2018-08-03T06:13:36.787Z,23.43
2018-08-03T06:16:04.408Z,23.90
2018-08-03T06:18:32.075Z,21.97
2018-08-03T06:20:59.669Z,24.53
2018-08-03T06:23:27.319Z,20.17
2018-08-03T06:25:54.982Z,20.57
2018-08-03T06:28:22.694Z,21.23
2018-08-03T06:30:50.213Z,21.57
2018-08-03T06:33:19.678Z,22.47
2018-08-03T06:35:47.423Z,22.23
2018-08-03T06:38:15.407Z,24.53
2018-08-03T06:40:43.105Z,21.23
2018-08-03T06:43:10.751Z,22.90
2018-08-03T06:45:38.391Z,21.97
2018-08-03T06:48:06.139Z,19.70
2018-08-03T06:50:33.732Z,20.70
2018-08-03T06:53:01.495Z,21.33
2018-08-03T06:55:29.089Z,26.60
2018-08-03T06:57:56.670Z,21.77
2018-08-03T07:00:24.301Z,23.97
2018-08-03T07:02:51.955Z,22.07
2018-08-03T07:05:19.615Z,21.47
2018-08-03T07:07:47.222Z,22.73
2018-08-03T07:10:14.825Z,24.03
2018-08-03T07:12:42.408Z,21.70
2018-08-03T07:15:10.143Z,21.63
2018-08-03T07:17:37.801Z,22.63
2018-08-03T07:20:05.731Z,25.40
2018-08-03T07:22:33.336Z,23.30
2018-08-03T07:25:01.008Z,23.93
2018-08-03T07:27:28.671Z,26.30
2018-08-03T07:29:56.374Z,22.70
2018-08-03T07:32:24.193Z,28.27
2018-08-03T07:34:51.812Z,19.43
2018-08-03T07:37:19.434Z,25.03
2018-08-03T07:39:47.024Z,23.00
2018-08-03T07:42:14.631Z,19.80
2018-08-03T07:44:42.324Z,20.30
2018-08-03T07:47:10.363Z,22.50
2018-08-03T07:49:37.974Z,27.37
2018-08-03T07:52:05.646Z,21.93
2018-08-03T07:54:33.256Z,23.30
2018-08-03T07:57:00.872Z,21.80
2018-08-03T07:59:28.489Z,22.53
2018-08-03T08:01:56.102Z,18.83
2018-08-03T08:04:23.712Z,23.03
2018-08-03T08:06:51.362Z,21.73
2018-08-03T08:09:18.959Z,21.07
2018-08-03T08:11:46.687Z,24.57
2018-08-03T08:14:14.371Z,22.77
2018-08-03T08:16:42.039Z,23.50
2018-08-03T08:19:09.752Z,21.80
2018-08-03T08:21:37.380Z,23.73
2018-08-03T08:24:05.093Z,21.10
2018-08-03T08:26:32.740Z,26.20
2018-08-03T08:29:00.417Z,19.23
2018-08-03T08:31:28.080Z,23.10
2018-08-03T08:33:55.713Z,24.50
2018-08-03T08:36:23.375Z,21.23
2018-08-03T08:38:51.047Z,23.73
2018-08-03T08:41:18.733Z,21.93
2018-08-03T08:43:46.435Z,26.70
2018-08-03T08:46:14.058Z,22.23
2018-08-03T08:48:41.721Z,21.17
2018-08-03T08:51:09.478Z,20.83
2018-08-03T08:53:37.154Z,24.07
2018-08-03T08:56:04.966Z,22.17
2018-08-03T08:58:32.665Z,27.37
2018-08-03T09:01:00.325Z,20.63
2018-08-03T09:03:27.954Z,19.80
2018-08-03T09:05:55.800Z,19.20
2018-08-03T09:08:24.438Z,21.10
2018-08-03T09:10:52.103Z,22.60
2018-08-03T09:13:19.733Z,19.70
2018-08-03T09:15:47.343Z,19.30
2018-08-03T09:18:14.936Z,16.97
2018-08-03T09:20:42.547Z,21.87
2018-08-03T09:23:10.140Z,29.43
2018-08-03T09:25:37.780Z,21.57
2018-08-03T09:28:05.858Z,18.30
2018-08-03T09:30:33.410Z,19.67
2018-08-03T09:33:00.982Z,21.90
2018-08-03T09:35:28.732Z,21.67
2018-08-03T09:37:56.290Z,19.80
2018-08-03T09:40:23.892Z,21.60
2018-08-03T09:42:51.534Z,17.80
2018-08-03T09:45:19.145Z,20.27
2018-08-03T09:47:46.774Z,24.47
2018-08-03T09:50:14.438Z,22.23
2018-08-03T09:52:42.017Z,18.17
2018-08-03T09:55:09.664Z,32.60
2018-08-03T09:57:37.185Z,18.40
2018-08-03T10:00:05.261Z,17.10
2018-08-03T10:02:32.857Z,17.47
2018-08-03T10:05:00.431Z,19.00
2018-08-03T10:07:28.083Z,19.77
2018-08-03T10:09:55.630Z,17.40
2018-08-03T10:12:23.293Z,16.67
2018-08-03T10:14:50.907Z,19.37
2018-08-03T10:17:18.561Z,16.20
2018-08-03T10:19:46.114Z,22.33
2018-08-03T10:22:13.635Z,18.17
2018-08-03T10:24:41.173Z,20.80
2018-08-03T10:27:08.769Z,20.20
2018-08-03T10:29:36.400Z,15.73
2018-08-03T10:32:03.915Z,25.63
2018-08-03T10:34:31.489Z,14.80
2018-08-03T10:36:59.209Z,19.70
2018-08-03T10:39:26.774Z,22.97
2018-08-03T10:41:54.372Z,22.77
2018-08-03T10:44:21.949Z,16.20
2018-08-03T10:46:49.541Z,18.50
2018-08-03T10:49:17.119Z,19.73
2018-08-03T10:51:44.695Z,21.23
2018-08-03T10:54:12.308Z,19.50
2018-08-03T10:56:39.958Z,16.93
2018-08-03T10:59:07.509Z,16.87
2018-08-03T11:01:35.185Z,16.70
2018-08-03T11:04:02.842Z,16.30
2018-08-03T11:06:30.440Z,20.13
2018-08-03T11:08:57.956Z,16.80
2018-08-03T11:11:25.530Z,17.07
2018-08-03T11:13:53.169Z,16.10
2018-08-03T11:16:20.820Z,16.40
2018-08-03T11:18:48.354Z,18.43
2018-08-03T11:21:15.988Z,17.50
2018-08-03T11:23:43.577Z,17.03
2018-08-03T11:26:11.144Z,15.80
2018-08-03T11:28:38.787Z,16.00
2018-08-03T11:31:06.351Z,14.10
2018-08-03T11:33:34.001Z,15.13
2018-08-03T11:36:01.617Z,12.93
2018-08-03T11:38:29.198Z,13.40
2018-08-03T11:40:56.878Z,14.53
2018-08-03T11:43:24.758Z,14.97
2018-08-03T11:45:52.346Z,14.40
2018-08-03T11:48:19.975Z,12.37
2018-08-03T11:50:47.727Z,11.83
2018-08-03T11:53:15.310Z,19.23
2018-08-03T11:55:42.858Z,11.80
2018-08-03T11:58:10.420Z,12.63
2018-08-03T12:00:37.983Z,12.17
2018-08-03T12:03:05.647Z,11.70
2018-08-03T12:05:33.223Z,15.00
2018-08-03T12:08:00.837Z,13.57
2018-08-03T12:10:28.363Z,11.77
2018-08-03T12:12:55.936Z,10.93
2018-08-03T12:15:23.567Z,11.23
2018-08-03T12:17:51.133Z,12.17
2018-08-03T12:20:18.664Z,12.70
2018-08-03T12:22:46.209Z,11.87
2018-08-03T12:25:13.790Z,12.20
2018-08-03T12:27:41.373Z,11.90
2018-08-03T12:30:08.914Z,11.90
2018-08-03T12:32:36.512Z,12.50
2018-08-03T12:35:04.121Z,12.37
2018-08-03T12:37:31.667Z,12.57
2018-08-03T12:39:59.236Z,11.90
2018-08-03T12:42:26.803Z,11.07
2018-08-03T12:44:54.313Z,12.50
2018-08-03T12:47:21.889Z,10.80
2018-08-03T12:49:49.465Z,10.20
2018-08-03T12:52:17.073Z,10.20
2018-08-03T12:54:44.662Z,10.30
2018-08-03T12:57:12.269Z,11.70
2018-08-03T12:59:39.833Z,14.63
2018-08-03T13:02:07.461Z,9.70
2018-08-03T13:04:35.479Z,11.20
2018-08-03T13:07:03.164Z,11.70
2018-08-03T13:09:30.756Z,9.93
2018-08-03T13:11:58.484Z,9.80
2018-08-03T13:14:26.039Z,11.37
2018-08-03T13:16:53.710Z,11.00
2018-08-03T13:19:21.334Z,10.37
2018-08-03T13:21:48.893Z,12.23
2018-08-03T13:24:16.499Z,11.37
2018-08-03T13:26:44.151Z,11.37
2018-08-03T13:29:12.062Z,10.53
2018-08-03T13:31:39.634Z,14.13
2018-08-03T13:34:07.236Z,11.57
2018-08-03T13:36:34.905Z,13.33
2018-08-03T13:39:02.665Z,10.93
2018-08-03T13:41:30.269Z,10.90
2018-08-03T13:43:57.900Z,11.77
2018-08-03T13:46:25.527Z,11.70
2018-08-03T13:48:53.138Z,10.53
2018-08-03T13:51:20.755Z,13.20
2018-08-03T13:53:48.486Z,10.33
2018-08-03T13:56:16.875Z,10.93
2018-08-03T13:58:45.161Z,9.93
2018-08-03T14:01:30.310Z,10.17
2018-08-03T14:03:58.024Z,8.57
2018-08-03T14:06:25.602Z,8.97
2018-08-03T14:08:53.126Z,8.40
2018-08-03T14:11:20.665Z,10.50
2018-08-03T14:13:48.340Z,11.40
2018-08-03T14:16:16.076Z,9.90
2018-08-03T14:18:44.573Z,14.13
2018-08-03T14:21:12.133Z,10.50
2018-08-03T14:23:39.711Z,11.47
2018-08-03T14:26:07.301Z,9.27
2018-08-03T14:28:34.931Z,10.63
2018-08-03T14:31:02.585Z,8.80
2018-08-03T14:33:30.233Z,14.00
2018-08-03T14:35:57.785Z,9.83
2018-08-03T14:38:25.461Z,11.30
2018-08-03T14:40:53.063Z,9.60
2018-08-03T14:43:20.639Z,8.60
2018-08-03T14:45:48.258Z,8.20
2018-08-03T14:48:15.903Z,9.23
2018-08-03T15:14:21.224Z,14.63
2018-08-03T15:16:48.751Z,10.70
2018-08-03T15:19:16.327Z,9.53
2018-08-03T15:21:43.850Z,9.70
2018-08-03T15:24:11.440Z,10.13
2018-08-03T15:26:38.977Z,10.17
2018-08-03T15:29:06.566Z,10.00
2018-08-03T15:31:34.121Z,12.30
2018-08-03T15:34:01.722Z,10.33
2018-08-03T15:36:29.258Z,10.70
2018-08-03T15:38:56.819Z,11.40
2018-08-03T15:41:24.366Z,10.87
2018-08-03T15:43:52.118Z,13.00
2018-08-03T15:46:19.652Z,10.20
2018-08-03T15:48:47.220Z,14.13
2018-08-03T15:51:14.817Z,10.20
2018-08-03T15:53:42.442Z,11.50
2018-08-03T15:56:10.058Z,11.43
2018-08-03T15:58:37.651Z,10.70
2018-08-03T16:01:05.230Z,10.70
2018-08-03T16:03:32.781Z,10.83
2018-08-03T16:06:00.374Z,12.93
2018-08-03T16:08:28.134Z,12.90
2018-08-03T16:10:55.730Z,12.30
2018-08-03T16:13:23.299Z,11.63
2018-08-03T16:15:50.869Z,12.37
2018-08-03T16:18:18.464Z,9.90
2018-08-03T16:20:46.054Z,8.90
2018-08-03T16:23:13.627Z,8.80
2018-08-03T16:25:41.251Z,10.27
2018-08-03T16:28:08.809Z,10.40
2018-08-03T16:30:36.317Z,9.17
2018-08-03T16:33:03.929Z,10.20
2018-08-03T16:35:31.497Z,12.60
2018-08-03T16:37:59.111Z,10.80
2018-08-03T16:40:26.728Z,9.80
2018-08-03T16:42:54.330Z,11.50
2018-08-03T16:45:22.073Z,10.57
2018-08-03T16:47:49.633Z,14.20
2018-08-03T16:50:17.190Z,14.10
2018-08-03T16:52:44.898Z,10.80
2018-08-03T16:55:12.502Z,10.67
2018-08-03T16:57:40.014Z,10.17
2018-08-03T17:00:07.633Z,14.70
2018-08-03T17:02:35.150Z,12.17
2018-08-03T17:05:03.162Z,11.30
2018-08-03T17:07:30.744Z,11.33
2018-08-03T17:09:58.299Z,18.80
2018-08-03T17:12:25.859Z,11.23
2018-08-03T17:14:53.450Z,10.60
2018-08-03T17:17:21.002Z,10.50
2018-08-03T17:19:48.543Z,10.80
2018-08-03T17:22:16.089Z,11.27
2018-08-03T17:24:43.621Z,10.07
2018-08-03T17:27:11.189Z,11.63
2018-08-03T17:29:38.800Z,11.03
2018-08-03T17:32:06.426Z,12.17
2018-08-03T17:34:33.991Z,11.60
2018-08-03T17:37:01.683Z,11.97
2018-08-03T17:39:29.183Z,10.80
2018-08-03T17:41:56.747Z,14.33
2018-08-03T17:44:25.331Z,11.67
2018-08-03T17:46:52.924Z,10.80
2018-08-03T17:49:20.770Z,13.40
2018-08-03T17:51:48.377Z,14.57
2018-08-03T17:54:15.960Z,11.07
2018-08-03T17:56:43.546Z,11.70
2018-08-03T17:59:11.160Z,11.60
2018-08-03T18:01:38.747Z,12.73
2018-08-03T18:04:06.302Z,11.57
2018-08-03T18:06:33.898Z,11.03
2018-08-03T18:09:01.517Z,15.07
2018-08-03T18:11:29.122Z,10.90
2018-08-03T18:13:56.834Z,12.03
2018-08-03T18:16:24.475Z,12.30
2018-08-03T18:18:52.070Z,14.33
2018-08-03T18:21:19.657Z,13.17
2018-08-03T18:23:47.359Z,11.30
2018-08-03T18:26:14.898Z,11.77
2018-08-03T18:28:42.579Z,18.70
2018-08-03T18:31:10.125Z,16.27
2018-08-03T18:33:37.821Z,13.63
2018-08-03T18:36:05.408Z,20.00
2018-08-03T18:38:32.977Z,14.80
2018-08-03T18:41:02.036Z,13.73
2018-08-03T18:43:29.796Z,20.30
2018-08-03T18:45:57.470Z,13.30
2018-08-03T18:48:25.058Z,13.73
2018-08-03T18:50:52.726Z,12.70
2018-08-03T18:53:20.256Z,17.10
2018-08-03T18:55:47.999Z,13.57
2018-08-03T18:58:15.691Z,14.30
2018-08-03T19:00:43.292Z,12.63
2018-08-03T19:03:10.851Z,14.53
2018-08-03T19:05:38.514Z,14.37
2018-08-03T19:08:06.085Z,15.63
2018-08-03T19:10:33.654Z,13.33
2018-08-03T19:13:01.306Z,14.43
2018-08-03T19:15:28.913Z,15.90
2018-08-03T19:17:57.719Z,14.37
2018-08-03T19:20:25.269Z,13.73
2018-08-03T19:22:52.920Z,24.17
2018-08-03T19:25:20.633Z,18.63
2018-08-03T19:27:48.349Z,24.50
2018-08-03T19:30:16.038Z,17.57
2018-08-03T19:32:43.768Z,14.63
2018-08-03T19:35:11.501Z,20.83
2018-08-03T19:37:39.419Z,15.50
2018-08-03T19:40:07.173Z,14.13
2018-08-03T19:42:34.854Z,19.23
2018-08-03T19:45:02.565Z,24.47
2018-08-03T19:47:30.319Z,15.40
2018-08-03T19:49:57.990Z,15.90
2018-08-03T19:52:25.653Z,18.67
2018-08-03T19:54:53.317Z,18.50
2018-08-03T19:57:21.030Z,20.07
2018-08-03T19:59:48.574Z,17.77
2018-08-03T20:02:16.453Z,15.93
2018-08-03T20:04:44.038Z,27.77
2018-08-03T20:07:11.685Z,20.00
2018-08-03T20:09:39.309Z,24.20
2018-08-03T20:12:09.224Z,18.17
2018-08-03T20:14:36.896Z,18.10
2018-08-03T20:17:04.579Z,21.07
2018-08-03T20:19:32.268Z,21.60
2018-08-03T20:21:59.942Z,18.47
2018-08-03T20:24:27.629Z,18.40
2018-08-03T20:26:55.350Z,19.07
2018-08-03T20:29:22.952Z,18.40
2018-08-03T20:31:50.574Z,16.23
2018-08-03T20:34:18.174Z,19.67
2018-08-03T20:36:45.898Z,17.70
2018-08-03T20:39:13.511Z,17.53
2018-08-03T20:41:41.120Z,18.80
2018-08-03T20:44:08.791Z,17.17
2018-08-03T20:46:36.446Z,16.83
2018-08-03T20:49:04.278Z,24.23
2018-08-03T20:51:31.925Z,17.17
2018-08-03T20:53:59.781Z,20.47
2018-08-03T20:56:27.415Z,25.80
2018-08-03T20:58:55.146Z,21.50
2018-08-03T21:01:22.717Z,19.20
2018-08-03T21:03:50.337Z,25.80
2018-08-03T21:06:17.932Z,19.47
2018-08-03T21:08:45.544Z,17.77
2018-08-03T21:11:13.130Z,25.50
2018-08-03T21:13:40.765Z,24.10
2018-08-03T21:16:08.403Z,18.13
2018-08-03T21:18:36.165Z,19.80
2018-08-03T21:21:03.822Z,18.27
2018-08-03T21:23:31.494Z,19.13
2018-08-03T21:25:59.054Z,18.53
2018-08-03T21:28:26.740Z,18.53
2018-08-03T21:30:54.361Z,17.27
2018-08-03T21:33:22.202Z,21.03
2018-08-03T21:35:49.864Z,17.70
2018-08-03T21:38:17.552Z,21.20
2018-08-03T21:40:49.725Z,19.47
2018-08-03T21:43:17.289Z,18.40
2018-08-03T21:45:44.886Z,18.40
2018-08-03T21:48:12.511Z,17.17
2018-08-03T21:50:40.178Z,17.07
2018-08-03T21:53:07.770Z,17.43
2018-08-03T21:55:35.339Z,15.97
2018-08-03T21:58:03.057Z,17.07
2018-08-03T22:00:30.723Z,16.20
2018-08-03T22:02:58.366Z,17.80
2018-08-03T22:05:26.002Z,16.53
2018-08-03T22:07:53.582Z,22.87
2018-08-03T22:10:21.149Z,17.03
2018-08-03T22:12:48.720Z,16.83
2018-08-03T22:15:16.362Z,15.93
2018-08-03T22:17:43.958Z,17.63
2018-08-03T22:20:11.629Z,16.67
2018-08-03T22:22:39.255Z,15.43
2018-08-03T22:25:06.965Z,18.50
2018-08-03T22:27:34.516Z,15.47
2018-08-03T22:30:02.082Z,18.50
2018-08-03T22:32:29.773Z,16.50
2018-08-03T22:34:57.370Z,14.97
2018-08-03T22:37:25.031Z,14.73
2018-08-03T22:39:52.830Z,15.40
2018-08-03T22:42:20.464Z,16.80
2018-08-03T22:44:48.071Z,19.57
2018-08-03T22:47:15.612Z,18.03
2018-08-03T22:49:43.253Z,15.17
2018-08-03T22:52:10.792Z,13.23
2018-08-03T22:54:38.408Z,13.10
2018-08-03T22:57:06.021Z,13.00
2018-08-03T22:59:33.616Z,16.80
2018-08-03T23:02:01.234Z,13.10
2018-08-03T23:04:28.878Z,14.40
2018-08-03T23:06:56.462Z,11.63
2018-08-03T23:09:24.061Z,15.27
2018-08-03T23:11:51.673Z,13.17
2018-08-03T23:14:19.275Z,12.90
2018-08-03T23:16:47.005Z,9.93
2018-08-03T23:19:14.611Z,11.97
2018-08-03T23:21:42.241Z,10.80
2018-08-03T23:24:09.857Z,10.40
2018-08-03T23:26:37.413Z,12.07
2018-08-03T23:29:05.038Z,11.73
2018-08-03T23:31:32.615Z,11.00
2018-08-03T23:34:00.274Z,11.50
2018-08-03T23:36:27.870Z,11.83
2018-08-03T23:38:55.538Z,15.30
2018-08-03T23:41:23.150Z,14.33
2018-08-03T23:43:50.758Z,12.40
2018-08-03T23:46:18.498Z,12.30
2018-08-03T23:48:46.184Z,11.10
2018-08-03T23:51:13.825Z,11.10
2018-08-03T23:53:41.515Z,11.00
2018-08-03T23:56:09.089Z,12.27
2018-08-03T23:58:36.723Z,10.83
